sensor_id;sensor_type;location;lat;lon;timestamp;P1;durP1;ratioP1;P2;durP2;ratioP2
19161;SDS011;9713;48.140;11.530;2023-07-31T00:01:05;6.38;;;2.17;;
19161;SDS011;9713;48.140;11.530;2023-07-31T00:04:48;3.55;;;2.00;;
19161;SDS011;9713;48.140;11.530;2023-07-31T00:08:32;3.53;;;1.95;;
19161;SDS011;9713;48.140;11.530;2023-07-31T00:12:15;3.10;;;1.88;;
19161;SDS011;9713;48.140;11.530;2023-07-31T00:15:58;5.05;;;2.28;;
19161;SDS011;9713;48.140;11.530;2023-07-31T00:19:41;3.70;;;2.10;;
19161;SDS011;9713;48.140;11.530;2023-07-31T00:23:24;5.43;;;2.20;;
19161;SDS011;9713;48.140;11.530;2023-07-31T00:27:08;3.65;;;1.77;;
19161;SDS011;9713;48.140;11.530;2023-07-31T00:30:51;10.33;;;2.10;;
19161;SDS011;9713;48.140;11.530;2023-07-31T00:34:34;4.87;;;1.80;;
19161;SDS011;9713;48.140;11.530;2023-07-31T00:38:16;3.45;;;1.77;;
19161;SDS011;9713;48.140;11.530;2023-07-31T00:41:59;4.32;;;1.85;;
19161;SDS011;9713;48.140;11.530;2023-07-31T00:45:43;6.77;;;1.90;;
19161;SDS011;9713;48.140;11.530;2023-07-31T00:49:26;4.87;;;1.93;;
19161;SDS011;9713;48.140;11.530;2023-07-31T00:53:09;4.87;;;1.97;;
19161;SDS011;9713;48.140;11.530;2023-07-31T00:56:52;4.17;;;2.10;;
19161;SDS011;9713;48.140;11.530;2023-07-31T01:00:35;4.63;;;1.80;;
19161;SDS011;9713;48.140;11.530;2023-07-31T01:04:20;6.20;;;2.00;;
19161;SDS011;9713;48.140;11.530;2023-07-31T01:08:04;4.87;;;1.80;;
19161;SDS011;9713;48.140;11.530;2023-07-31T01:11:52;4.47;;;1.90;;
19161;SDS011;9713;48.140;11.530;2023-07-31T01:15:36;3.33;;;1.90;;
19161;SDS011;9713;48.140;11.530;2023-07-31T01:19:22;7.13;;;1.80;;
19161;SDS011;9713;48.140;11.530;2023-07-31T01:23:22;4.73;;;2.20;;
19161;SDS011;9713;48.140;11.530;2023-07-31T01:27:11;3.53;;;1.63;;
19161;SDS011;9713;48.140;11.530;2023-07-31T01:30:55;2.73;;;1.83;;
19161;SDS011;9713;48.140;11.530;2023-07-31T01:34:40;3.97;;;1.87;;
19161;SDS011;9713;48.140;11.530;2023-07-31T01:38:24;5.23;;;1.90;;
19161;SDS011;9713;48.140;11.530;2023-07-31T01:42:06;4.10;;;2.20;;
19161;SDS011;9713;48.140;11.530;2023-07-31T01:45:51;5.33;;;1.90;;
19161;SDS011;9713;48.140;11.530;2023-07-31T01:49:34;7.47;;;1.98;;
19161;SDS011;9713;48.140;11.530;2023-07-31T01:53:16;5.65;;;2.15;;
19161;SDS011;9713;48.140;11.530;2023-07-31T01:56:59;3.22;;;1.90;;
19161;SDS011;9713;48.140;11.530;2023-07-31T02:00:42;6.40;;;2.05;;
19161;SDS011;9713;48.140;11.530;2023-07-31T02:04:26;4.00;;;1.80;;
19161;SDS011;9713;48.140;11.530;2023-07-31T02:08:09;3.57;;;1.83;;
19161;SDS011;9713;48.140;11.530;2023-07-31T02:11:51;3.47;;;1.70;;
19161;SDS011;9713;48.140;11.530;2023-07-31T02:15:34;5.00;;;1.80;;
19161;SDS011;9713;48.140;11.530;2023-07-31T02:19:17;2.87;;;1.73;;
19161;SDS011;9713;48.140;11.530;2023-07-31T02:23:01;3.87;;;2.10;;
19161;SDS011;9713;48.140;11.530;2023-07-31T02:26:44;3.97;;;1.90;;
19161;SDS011;9713;48.140;11.530;2023-07-31T02:30:27;4.78;;;1.90;;
19161;SDS011;9713;48.140;11.530;2023-07-31T02:34:09;4.40;;;1.80;;
19161;SDS011;9713;48.140;11.530;2023-07-31T02:37:52;4.30;;;2.00;;
19161;SDS011;9713;48.140;11.530;2023-07-31T02:41:36;3.83;;;1.83;;
19161;SDS011;9713;48.140;11.530;2023-07-31T02:45:19;4.70;;;2.17;;
19161;SDS011;9713;48.140;11.530;2023-07-31T02:49:02;4.15;;;2.05;;
19161;SDS011;9713;48.140;11.530;2023-07-31T02:52:44;9.03;;;2.07;;
19161;SDS011;9713;48.140;11.530;2023-07-31T02:56:27;4.73;;;1.97;;
19161;SDS011;9713;48.140;11.530;2023-07-31T03:00:11;3.10;;;2.03;;
19161;SDS011;9713;48.140;11.530;2023-07-31T03:03:54;3.47;;;2.00;;
19161;SDS011;9713;48.140;11.530;2023-07-31T03:07:38;4.63;;;2.00;;
19161;SDS011;9713;48.140;11.530;2023-07-31T03:11:20;5.03;;;2.00;;
19161;SDS011;9713;48.140;11.530;2023-07-31T03:15:03;2.28;;;1.92;;
19161;SDS011;9713;48.140;11.530;2023-07-31T03:18:48;4.87;;;2.60;;
19161;SDS011;9713;48.140;11.530;2023-07-31T03:22:31;3.15;;;2.13;;
19161;SDS011;9713;48.140;11.530;2023-07-31T03:26:13;3.13;;;2.07;;
19161;SDS011;9713;48.140;11.530;2023-07-31T03:29:56;4.23;;;2.10;;
19161;SDS011;9713;48.140;11.530;2023-07-31T03:33:40;4.60;;;2.30;;
19161;SDS011;9713;48.140;11.530;2023-07-31T03:37:24;4.30;;;2.23;;
19161;SDS011;9713;48.140;11.530;2023-07-31T03:41:07;3.50;;;2.10;;
19161;SDS011;9713;48.140;11.530;2023-07-31T03:44:51;7.10;;;2.40;;
19161;SDS011;9713;48.140;11.530;2023-07-31T03:48:34;4.73;;;2.40;;
19161;SDS011;9713;48.140;11.530;2023-07-31T03:52:17;5.90;;;2.10;;
19161;SDS011;9713;48.140;11.530;2023-07-31T03:56:01;4.40;;;2.40;;
19161;SDS011;9713;48.140;11.530;2023-07-31T03:59:44;5.53;;;2.10;;
19161;SDS011;9713;48.140;11.530;2023-07-31T04:03:26;4.60;;;2.53;;
19161;SDS011;9713;48.140;11.530;2023-07-31T04:07:09;4.77;;;2.20;;
19161;SDS011;9713;48.140;11.530;2023-07-31T04:10:52;4.33;;;2.03;;
19161;SDS011;9713;48.140;11.530;2023-07-31T04:14:36;7.87;;;2.57;;
19161;SDS011;9713;48.140;11.530;2023-07-31T04:18:19;5.30;;;2.80;;
19161;SDS011;9713;48.140;11.530;2023-07-31T04:22:03;4.97;;;2.80;;
19161;SDS011;9713;48.140;11.530;2023-07-31T04:25:46;9.73;;;3.00;;
19161;SDS011;9713;48.140;11.530;2023-07-31T04:29:29;4.23;;;2.77;;
19161;SDS011;9713;48.140;11.530;2023-07-31T04:33:13;5.37;;;2.77;;
19161;SDS011;9713;48.140;11.530;2023-07-31T04:36:56;7.70;;;3.27;;
19161;SDS011;9713;48.140;11.530;2023-07-31T04:40:38;7.80;;;3.20;;
19161;SDS011;9713;48.140;11.530;2023-07-31T04:44:21;6.47;;;2.90;;
19161;SDS011;9713;48.140;11.530;2023-07-31T04:48:04;4.50;;;2.57;;
19161;SDS011;9713;48.140;11.530;2023-07-31T04:51:48;6.13;;;2.70;;
19161;SDS011;9713;48.140;11.530;2023-07-31T04:55:31;6.77;;;2.80;;
19161;SDS011;9713;48.140;11.530;2023-07-31T04:59:14;6.30;;;2.63;;
19161;SDS011;9713;48.140;11.530;2023-07-31T05:02:56;5.67;;;2.70;;
19161;SDS011;9713;48.140;11.530;2023-07-31T05:06:39;5.70;;;2.80;;
19161;SDS011;9713;48.140;11.530;2023-07-31T05:10:23;8.47;;;2.80;;
19161;SDS011;9713;48.140;11.530;2023-07-31T05:14:06;4.33;;;2.57;;
19161;SDS011;9713;48.140;11.530;2023-07-31T05:17:49;4.47;;;2.37;;
19161;SDS011;9713;48.140;11.530;2023-07-31T05:21:32;3.53;;;2.45;;
19161;SDS011;9713;48.140;11.530;2023-07-31T05:25:15;10.37;;;3.50;;
19161;SDS011;9713;48.140;11.530;2023-07-31T05:28:59;6.47;;;2.40;;
19161;SDS011;9713;48.140;11.530;2023-07-31T05:32:42;3.47;;;2.28;;
19161;SDS011;9713;48.140;11.530;2023-07-31T05:36:24;4.53;;;2.40;;
19161;SDS011;9713;48.140;11.530;2023-07-31T05:40:07;8.17;;;3.60;;
19161;SDS011;9713;48.140;11.530;2023-07-31T05:43:50;5.28;;;2.15;;
19161;SDS011;9713;48.140;11.530;2023-07-31T05:47:37;9.93;;;2.40;;
19161;SDS011;9713;48.140;11.530;2023-07-31T05:51:20;5.28;;;2.20;;
19161;SDS011;9713;48.140;11.530;2023-07-31T05:55:03;5.13;;;2.30;;
19161;SDS011;9713;48.140;11.530;2023-07-31T05:58:46;4.10;;;2.00;;
19161;SDS011;9713;48.140;11.530;2023-07-31T06:02:30;3.35;;;2.03;;
19161;SDS011;9713;48.140;11.530;2023-07-31T06:06:15;6.05;;;2.42;;
19161;SDS011;9713;48.140;11.530;2023-07-31T06:09:58;2.63;;;1.70;;
19161;SDS011;9713;48.140;11.530;2023-07-31T06:13:44;4.50;;;1.95;;
19161;SDS011;9713;48.140;11.530;2023-07-31T06:17:29;4.85;;;2.28;;
19161;SDS011;9713;48.140;11.530;2023-07-31T06:21:12;4.97;;;2.28;;
19161;SDS011;9713;48.140;11.530;2023-07-31T06:24:56;5.88;;;2.08;;
19161;SDS011;9713;48.140;11.530;2023-07-31T06:28:39;3.35;;;1.95;;
19161;SDS011;9713;48.140;11.530;2023-07-31T06:32:22;6.35;;;2.20;;
19161;SDS011;9713;48.140;11.530;2023-07-31T06:36:05;3.33;;;1.83;;
19161;SDS011;9713;48.140;11.530;2023-07-31T06:39:48;4.30;;;1.77;;
19161;SDS011;9713;48.140;11.530;2023-07-31T06:43:34;4.00;;;2.03;;
19161;SDS011;9713;48.140;11.530;2023-07-31T06:47:17;3.60;;;2.03;;
19161;SDS011;9713;48.140;11.530;2023-07-31T06:51:00;3.00;;;2.00;;
19161;SDS011;9713;48.140;11.530;2023-07-31T06:54:43;3.83;;;2.00;;
19161;SDS011;9713;48.140;11.530;2023-07-31T06:58:25;2.75;;;1.73;;
19161;SDS011;9713;48.140;11.530;2023-07-31T07:02:10;5.30;;;1.80;;
19161;SDS011;9713;48.140;11.530;2023-07-31T07:05:52;3.58;;;1.80;;
19161;SDS011;9713;48.140;11.530;2023-07-31T07:09:35;3.03;;;2.00;;
19161;SDS011;9713;48.140;11.530;2023-07-31T07:13:18;2.67;;;1.60;;
19161;SDS011;9713;48.140;11.530;2023-07-31T07:17:04;4.35;;;1.77;;
19161;SDS011;9713;48.140;11.530;2023-07-31T07:20:49;4.22;;;1.70;;
19161;SDS011;9713;48.140;11.530;2023-07-31T07:24:32;6.35;;;1.80;;
19161;SDS011;9713;48.140;11.530;2023-07-31T07:28:15;5.07;;;1.77;;
19161;SDS011;9713;48.140;11.530;2023-07-31T07:31:58;8.93;;;2.45;;
19161;SDS011;9713;48.140;11.530;2023-07-31T07:35:41;4.55;;;1.83;;
19161;SDS011;9713;48.140;11.530;2023-07-31T07:39:25;3.17;;;1.90;;
19161;SDS011;9713;48.140;11.530;2023-07-31T07:43:07;5.93;;;2.20;;
19161;SDS011;9713;48.140;11.530;2023-07-31T07:46:53;3.55;;;1.90;;
19161;SDS011;9713;48.140;11.530;2023-07-31T07:50:37;3.60;;;1.88;;
19161;SDS011;9713;48.140;11.530;2023-07-31T07:54:20;3.33;;;2.08;;
19161;SDS011;9713;48.140;11.530;2023-07-31T07:58:04;5.28;;;2.10;;
19161;SDS011;9713;48.140;11.530;2023-07-31T08:01:47;2.53;;;1.60;;
19161;SDS011;9713;48.140;11.530;2023-07-31T08:05:30;6.45;;;2.70;;
19161;SDS011;9713;48.140;11.530;2023-07-31T08:09:15;5.13;;;1.80;;
19161;SDS011;9713;48.140;11.530;2023-07-31T08:12:58;3.40;;;1.73;;
19161;SDS011;9713;48.140;11.530;2023-07-31T08:16:42;4.93;;;2.13;;
19161;SDS011;9713;48.140;11.530;2023-07-31T08:20:26;4.18;;;1.80;;
19161;SDS011;9713;48.140;11.530;2023-07-31T08:24:09;4.18;;;2.30;;
19161;SDS011;9713;48.140;11.530;2023-07-31T08:27:51;3.63;;;1.85;;
19161;SDS011;9713;48.140;11.530;2023-07-31T08:31:34;3.47;;;1.85;;
19161;SDS011;9713;48.140;11.530;2023-07-31T08:35:18;4.03;;;1.95;;
19161;SDS011;9713;48.140;11.530;2023-07-31T08:39:01;3.95;;;1.70;;
19161;SDS011;9713;48.140;11.530;2023-07-31T08:42:45;4.88;;;2.38;;
19161;SDS011;9713;48.140;11.530;2023-07-31T08:46:29;4.22;;;2.00;;
19161;SDS011;9713;48.140;11.530;2023-07-31T08:50:12;2.78;;;1.98;;
19161;SDS011;9713;48.140;11.530;2023-07-31T08:53:56;3.00;;;1.70;;
19161;SDS011;9713;48.140;11.530;2023-07-31T08:57:39;6.63;;;2.08;;
19161;SDS011;9713;48.140;11.530;2023-07-31T09:01:22;4.18;;;1.80;;
19161;SDS011;9713;48.140;11.530;2023-07-31T09:05:06;2.65;;;1.55;;
19161;SDS011;9713;48.140;11.530;2023-07-31T09:08:49;4.13;;;1.73;;
19161;SDS011;9713;48.140;11.530;2023-07-31T09:12:34;4.18;;;1.75;;
19161;SDS011;9713;48.140;11.530;2023-07-31T09:16:18;4.90;;;2.72;;
19161;SDS011;9713;48.140;11.530;2023-07-31T09:20:12;3.38;;;1.80;;
19161;SDS011;9713;48.140;11.530;2023-07-31T09:23:56;4.80;;;1.65;;
19161;SDS011;9713;48.140;11.530;2023-07-31T09:27:48;5.40;;;2.00;;
19161;SDS011;9713;48.140;11.530;2023-07-31T09:31:41;3.90;;;1.65;;
19161;SDS011;9713;48.140;11.530;2023-07-31T09:35:27;7.85;;;2.00;;
19161;SDS011;9713;48.140;11.530;2023-07-31T09:39:11;4.93;;;1.80;;
19161;SDS011;9713;48.140;11.530;2023-07-31T09:42:59;4.25;;;1.90;;
19161;SDS011;9713;48.140;11.530;2023-07-31T09:46:42;3.90;;;2.60;;
19161;SDS011;9713;48.140;11.530;2023-07-31T09:50:25;5.53;;;1.70;;
19161;SDS011;9713;48.140;11.530;2023-07-31T09:54:11;7.40;;;3.88;;
19161;SDS011;9713;48.140;11.530;2023-07-31T09:57:54;7.28;;;2.30;;
19161;SDS011;9713;48.140;11.530;2023-07-31T10:01:41;2.58;;;1.90;;
19161;SDS011;9713;48.140;11.530;2023-07-31T10:05:26;3.63;;;1.70;;
19161;SDS011;9713;48.140;11.530;2023-07-31T10:09:12;5.85;;;2.05;;
19161;SDS011;9713;48.140;11.530;2023-07-31T10:12:57;6.18;;;2.30;;
19161;SDS011;9713;48.140;11.530;2023-07-31T10:16:43;4.15;;;2.10;;
19161;SDS011;9713;48.140;11.530;2023-07-31T10:20:26;5.70;;;1.88;;
19161;SDS011;9713;48.140;11.530;2023-07-31T10:24:09;6.00;;;1.88;;
19161;SDS011;9713;48.140;11.530;2023-07-31T10:27:52;2.45;;;1.90;;
19161;SDS011;9713;48.140;11.530;2023-07-31T10:31:36;3.85;;;2.00;;
19161;SDS011;9713;48.140;11.530;2023-07-31T10:35:20;4.95;;;1.90;;
19161;SDS011;9713;48.140;11.530;2023-07-31T10:39:06;6.03;;;2.95;;
19161;SDS011;9713;48.140;11.530;2023-07-31T10:43:25;5.97;;;2.65;;
19161;SDS011;9713;48.140;11.530;2023-07-31T10:47:09;6.72;;;3.42;;
19161;SDS011;9713;48.140;11.530;2023-07-31T10:50:55;6.35;;;2.15;;
19161;SDS011;9713;48.140;11.530;2023-07-31T10:54:38;5.68;;;2.05;;
19161;SDS011;9713;48.140;11.530;2023-07-31T10:58:21;4.65;;;2.10;;
19161;SDS011;9713;48.140;11.530;2023-07-31T11:02:04;4.03;;;2.28;;
19161;SDS011;9713;48.140;11.530;2023-07-31T11:05:48;5.80;;;2.10;;
19161;SDS011;9713;48.140;11.530;2023-07-31T11:09:36;5.28;;;2.13;;
19161;SDS011;9713;48.140;11.530;2023-07-31T11:13:19;2.90;;;1.92;;
19161;SDS011;9713;48.140;11.530;2023-07-31T11:17:05;5.18;;;1.92;;
19161;SDS011;9713;48.140;11.530;2023-07-31T11:20:48;3.95;;;2.40;;
19161;SDS011;9713;48.140;11.530;2023-07-31T11:24:32;4.40;;;2.55;;
19161;SDS011;9713;48.140;11.530;2023-07-31T11:28:17;3.35;;;2.33;;
19161;SDS011;9713;48.140;11.530;2023-07-31T11:32:00;4.38;;;1.80;;
19161;SDS011;9713;48.140;11.530;2023-07-31T11:35:44;5.70;;;2.20;;
19161;SDS011;9713;48.140;11.530;2023-07-31T11:39:29;3.45;;;1.80;;
19161;SDS011;9713;48.140;11.530;2023-07-31T11:43:13;5.40;;;2.05;;
19161;SDS011;9713;48.140;11.530;2023-07-31T11:46:58;2.90;;;2.00;;
19161;SDS011;9713;48.140;11.530;2023-07-31T11:50:43;4.20;;;1.90;;
19161;SDS011;9713;48.140;11.530;2023-07-31T11:54:26;10.95;;;2.38;;
19161;SDS011;9713;48.140;11.530;2023-07-31T11:58:09;4.82;;;2.40;;
19161;SDS011;9713;48.140;11.530;2023-07-31T12:01:54;4.32;;;1.90;;
19161;SDS011;9713;48.140;11.530;2023-07-31T12:05:37;3.28;;;2.03;;
19161;SDS011;9713;48.140;11.530;2023-07-31T12:09:20;4.43;;;1.85;;
19161;SDS011;9713;48.140;11.530;2023-07-31T12:13:08;2.70;;;1.90;;
19161;SDS011;9713;48.140;11.530;2023-07-31T12:16:56;4.97;;;1.90;;
19161;SDS011;9713;48.140;11.530;2023-07-31T12:20:41;2.20;;;1.80;;
19161;SDS011;9713;48.140;11.530;2023-07-31T12:24:25;3.83;;;2.60;;
19161;SDS011;9713;48.140;11.530;2023-07-31T12:28:08;3.53;;;2.05;;
19161;SDS011;9713;48.140;11.530;2023-07-31T12:31:53;3.42;;;1.55;;
19161;SDS011;9713;48.140;11.530;2023-07-31T12:35:38;5.97;;;1.95;;
19161;SDS011;9713;48.140;11.530;2023-07-31T12:39:23;3.83;;;1.60;;
19161;SDS011;9713;48.140;11.530;2023-07-31T12:43:06;3.08;;;1.90;;
19161;SDS011;9713;48.140;11.530;2023-07-31T12:46:49;5.05;;;2.40;;
19161;SDS011;9713;48.140;11.530;2023-07-31T12:50:32;2.45;;;1.77;;
19161;SDS011;9713;48.140;11.530;2023-07-31T12:54:16;3.90;;;1.70;;
19161;SDS011;9713;48.140;11.530;2023-07-31T12:57:58;2.53;;;1.65;;
19161;SDS011;9713;48.140;11.530;2023-07-31T13:01:41;3.45;;;1.88;;
19161;SDS011;9713;48.140;11.530;2023-07-31T13:05:24;4.50;;;2.15;;
19161;SDS011;9713;48.140;11.530;2023-07-31T13:09:07;3.63;;;1.80;;
19161;SDS011;9713;48.140;11.530;2023-07-31T13:12:52;2.80;;;1.80;;
19161;SDS011;9713;48.140;11.530;2023-07-31T13:16:34;3.35;;;1.85;;
19161;SDS011;9713;48.140;11.530;2023-07-31T13:20:18;4.00;;;1.83;;
19161;SDS011;9713;48.140;11.530;2023-07-31T13:24:00;2.78;;;1.55;;
19161;SDS011;9713;48.140;11.530;2023-07-31T13:27:43;3.10;;;1.70;;
19161;SDS011;9713;48.140;11.530;2023-07-31T13:31:27;3.55;;;2.08;;
19161;SDS011;9713;48.140;11.530;2023-07-31T13:35:10;2.75;;;1.80;;
19161;SDS011;9713;48.140;11.530;2023-07-31T13:38:53;3.67;;;1.67;;
19161;SDS011;9713;48.140;11.530;2023-07-31T13:42:36;4.05;;;1.85;;
19161;SDS011;9713;48.140;11.530;2023-07-31T13:46:19;3.67;;;1.75;;
19161;SDS011;9713;48.140;11.530;2023-07-31T13:50:03;5.63;;;2.47;;
19161;SDS011;9713;48.140;11.530;2023-07-31T13:53:46;2.70;;;1.98;;
19161;SDS011;9713;48.140;11.530;2023-07-31T13:57:29;2.70;;;1.80;;
19161;SDS011;9713;48.140;11.530;2023-07-31T14:01:12;3.45;;;1.52;;
19161;SDS011;9713;48.140;11.530;2023-07-31T14:04:55;4.80;;;2.40;;
19161;SDS011;9713;48.140;11.530;2023-07-31T14:08:39;3.92;;;1.83;;
19161;SDS011;9713;48.140;11.530;2023-07-31T14:12:22;4.75;;;1.65;;
19161;SDS011;9713;48.140;11.530;2023-07-31T14:16:23;1.95;;;1.40;;
19161;SDS011;9713;48.140;11.530;2023-07-31T14:20:06;4.70;;;1.95;;
19161;SDS011;9713;48.140;11.530;2023-07-31T14:23:51;2.30;;;1.70;;
19161;SDS011;9713;48.140;11.530;2023-07-31T14:27:34;7.13;;;2.00;;
19161;SDS011;9713;48.140;11.530;2023-07-31T14:31:17;4.05;;;1.67;;
19161;SDS011;9713;48.140;11.530;2023-07-31T14:35:00;4.55;;;2.40;;
19161;SDS011;9713;48.140;11.530;2023-07-31T14:38:43;4.57;;;1.67;;
19161;SDS011;9713;48.140;11.530;2023-07-31T14:42:27;2.60;;;1.70;;
19161;SDS011;9713;48.140;11.530;2023-07-31T14:46:10;2.88;;;1.50;;
19161;SDS011;9713;48.140;11.530;2023-07-31T14:49:53;3.15;;;2.00;;
19161;SDS011;9713;48.140;11.530;2023-07-31T14:53:35;2.58;;;1.70;;
19161;SDS011;9713;48.140;11.530;2023-07-31T14:57:18;3.50;;;2.10;;
19161;SDS011;9713;48.140;11.530;2023-07-31T15:01:02;3.67;;;2.30;;
19161;SDS011;9713;48.140;11.530;2023-07-31T15:04:45;4.82;;;2.00;;
19161;SDS011;9713;48.140;11.530;2023-07-31T15:08:28;3.15;;;2.10;;
19161;SDS011;9713;48.140;11.530;2023-07-31T15:12:11;3.90;;;1.80;;
19161;SDS011;9713;48.140;11.530;2023-07-31T15:15:54;3.83;;;1.95;;
19161;SDS011;9713;48.140;11.530;2023-07-31T15:19:38;5.20;;;2.10;;
19161;SDS011;9713;48.140;11.530;2023-07-31T15:23:21;5.32;;;2.45;;
19161;SDS011;9713;48.140;11.530;2023-07-31T15:27:05;4.05;;;2.40;;
19161;SDS011;9713;48.140;11.530;2023-07-31T15:30:49;4.22;;;2.80;;
19161;SDS011;9713;48.140;11.530;2023-07-31T15:34:32;5.97;;;3.50;;
19161;SDS011;9713;48.140;11.530;2023-07-31T15:38:16;5.15;;;3.08;;
19161;SDS011;9713;48.140;11.530;2023-07-31T15:41:59;6.30;;;2.92;;
19161;SDS011;9713;48.140;11.530;2023-07-31T15:45:42;3.63;;;2.25;;
19161;SDS011;9713;48.140;11.530;2023-07-31T15:49:25;4.20;;;2.50;;
19161;SDS011;9713;48.140;11.530;2023-07-31T15:53:07;5.13;;;2.45;;
19161;SDS011;9713;48.140;11.530;2023-07-31T15:56:51;5.05;;;2.70;;
19161;SDS011;9713;48.140;11.530;2023-07-31T16:00:34;7.32;;;2.15;;
19161;SDS011;9713;48.140;11.530;2023-07-31T16:04:17;4.72;;;2.30;;
19161;SDS011;9713;48.140;11.530;2023-07-31T16:08:00;7.32;;;2.55;;
19161;SDS011;9713;48.140;11.530;2023-07-31T16:11:43;5.80;;;2.20;;
19161;SDS011;9713;48.140;11.530;2023-07-31T16:15:27;3.33;;;2.00;;
19161;SDS011;9713;48.140;11.530;2023-07-31T16:19:10;5.50;;;2.45;;
19161;SDS011;9713;48.140;11.530;2023-07-31T16:22:53;5.65;;;2.70;;
19161;SDS011;9713;48.140;11.530;2023-07-31T16:26:36;5.70;;;2.25;;
19161;SDS011;9713;48.140;11.530;2023-07-31T16:30:19;4.40;;;2.35;;
19161;SDS011;9713;48.140;11.530;2023-07-31T16:34:04;3.60;;;2.30;;
19161;SDS011;9713;48.140;11.530;2023-07-31T16:37:46;3.78;;;2.50;;
19161;SDS011;9713;48.140;11.530;2023-07-31T16:41:29;4.47;;;2.45;;
19161;SDS011;9713;48.140;11.530;2023-07-31T16:45:12;5.63;;;2.50;;
19161;SDS011;9713;48.140;11.530;2023-07-31T16:48:55;5.18;;;2.42;;
19161;SDS011;9713;48.140;11.530;2023-07-31T16:52:39;8.55;;;3.88;;
19161;SDS011;9713;48.140;11.530;2023-07-31T16:56:22;10.55;;;2.50;;
19161;SDS011;9713;48.140;11.530;2023-07-31T17:00:05;5.20;;;3.50;;
19161;SDS011;9713;48.140;11.530;2023-07-31T17:03:48;4.70;;;2.53;;
19161;SDS011;9713;48.140;11.530;2023-07-31T17:07:31;6.03;;;2.90;;
19161;SDS011;9713;48.140;11.530;2023-07-31T17:11:16;7.60;;;2.55;;
19161;SDS011;9713;48.140;11.530;2023-07-31T17:14:58;4.10;;;2.50;;
19161;SDS011;9713;48.140;11.530;2023-07-31T17:18:41;4.10;;;2.40;;
19161;SDS011;9713;48.140;11.530;2023-07-31T17:22:24;4.88;;;2.75;;
19161;SDS011;9713;48.140;11.530;2023-07-31T17:26:28;4.72;;;2.60;;
19161;SDS011;9713;48.140;11.530;2023-07-31T17:30:11;4.40;;;2.42;;
19161;SDS011;9713;48.140;11.530;2023-07-31T17:33:54;3.80;;;2.20;;
19161;SDS011;9713;48.140;11.530;2023-07-31T17:37:36;5.15;;;3.00;;
19161;SDS011;9713;48.140;11.530;2023-07-31T17:41:19;7.30;;;3.28;;
19161;SDS011;9713;48.140;11.530;2023-07-31T17:45:04;7.70;;;4.68;;
19161;SDS011;9713;48.140;11.530;2023-07-31T17:48:47;9.63;;;3.33;;
19161;SDS011;9713;48.140;11.530;2023-07-31T17:52:32;7.18;;;3.15;;
19161;SDS011;9713;48.140;11.530;2023-07-31T17:56:16;5.13;;;2.72;;
19161;SDS011;9713;48.140;11.530;2023-07-31T17:59:59;11.38;;;3.25;;
19161;SDS011;9713;48.140;11.530;2023-07-31T18:03:43;6.03;;;3.00;;
19161;SDS011;9713;48.140;11.530;2023-07-31T18:07:26;4.75;;;2.63;;
19161;SDS011;9713;48.140;11.530;2023-07-31T18:11:08;6.10;;;2.40;;
19161;SDS011;9713;48.140;11.530;2023-07-31T18:14:51;4.00;;;2.40;;
19161;SDS011;9713;48.140;11.530;2023-07-31T18:18:34;3.67;;;2.63;;
19161;SDS011;9713;48.140;11.530;2023-07-31T18:22:18;10.32;;;4.13;;
19161;SDS011;9713;48.140;11.530;2023-07-31T18:26:01;6.45;;;2.42;;
19161;SDS011;9713;48.140;11.530;2023-07-31T18:29:43;4.10;;;2.55;;
19161;SDS011;9713;48.140;11.530;2023-07-31T18:33:27;4.35;;;2.53;;
19161;SDS011;9713;48.140;11.530;2023-07-31T18:37:10;5.28;;;2.38;;
19161;SDS011;9713;48.140;11.530;2023-07-31T18:40:54;5.72;;;2.67;;
19161;SDS011;9713;48.140;11.530;2023-07-31T18:44:36;7.72;;;2.60;;
19161;SDS011;9713;48.140;11.530;2023-07-31T18:48:19;7.70;;;2.90;;
19161;SDS011;9713;48.140;11.530;2023-07-31T18:52:02;4.97;;;2.83;;
19161;SDS011;9713;48.140;11.530;2023-07-31T18:55:45;5.32;;;2.80;;
19161;SDS011;9713;48.140;11.530;2023-07-31T18:59:29;5.13;;;2.88;;
19161;SDS011;9713;48.140;11.530;2023-07-31T19:03:12;8.55;;;4.32;;
19161;SDS011;9713;48.140;11.530;2023-07-31T19:06:55;13.82;;;4.60;;
19161;SDS011;9713;48.140;11.530;2023-07-31T19:10:37;7.15;;;3.50;;
19161;SDS011;9713;48.140;11.530;2023-07-31T19:14:21;9.63;;;3.25;;
19161;SDS011;9713;48.140;11.530;2023-07-31T19:18:05;9.57;;;3.97;;
19161;SDS011;9713;48.140;11.530;2023-07-31T19:21:48;3.60;;;2.67;;
19161;SDS011;9713;48.140;11.530;2023-07-31T19:25:31;4.57;;;2.88;;
19161;SDS011;9713;48.140;11.530;2023-07-31T19:29:14;7.57;;;3.20;;
19161;SDS011;9713;48.140;11.530;2023-07-31T19:32:56;5.78;;;2.85;;
19161;SDS011;9713;48.140;11.530;2023-07-31T19:36:40;5.30;;;2.92;;
19161;SDS011;9713;48.140;11.530;2023-07-31T19:40:23;6.72;;;3.20;;
19161;SDS011;9713;48.140;11.530;2023-07-31T19:44:06;7.47;;;3.35;;
19161;SDS011;9713;48.140;11.530;2023-07-31T19:47:49;5.63;;;2.75;;
19161;SDS011;9713;48.140;11.530;2023-07-31T19:51:32;5.00;;;3.28;;
19161;SDS011;9713;48.140;11.530;2023-07-31T19:55:16;7.15;;;3.10;;
19161;SDS011;9713;48.140;11.530;2023-07-31T19:58:59;5.03;;;2.80;;
19161;SDS011;9713;48.140;11.530;2023-07-31T20:02:42;6.90;;;3.63;;
19161;SDS011;9713;48.140;11.530;2023-07-31T20:06:26;6.25;;;3.10;;
19161;SDS011;9713;48.140;11.530;2023-07-31T20:10:09;4.82;;;3.00;;
19161;SDS011;9713;48.140;11.530;2023-07-31T20:13:53;4.75;;;2.92;;
19161;SDS011;9713;48.140;11.530;2023-07-31T20:17:36;7.38;;;3.47;;
19161;SDS011;9713;48.140;11.530;2023-07-31T20:21:18;5.22;;;3.05;;
19161;SDS011;9713;48.140;11.530;2023-07-31T20:25:01;5.63;;;3.22;;
19161;SDS011;9713;48.140;11.530;2023-07-31T20:28:44;4.57;;;2.72;;
19161;SDS011;9713;48.140;11.530;2023-07-31T20:32:28;5.03;;;2.97;;
19161;SDS011;9713;48.140;11.530;2023-07-31T20:36:11;4.07;;;2.63;;
19161;SDS011;9713;48.140;11.530;2023-07-31T20:39:55;4.13;;;2.83;;
19161;SDS011;9713;48.140;11.530;2023-07-31T20:43:38;5.97;;;3.38;;
19161;SDS011;9713;48.140;11.530;2023-07-31T20:47:21;5.03;;;3.30;;
19161;SDS011;9713;48.140;11.530;2023-07-31T20:51:05;5.13;;;3.08;;
19161;SDS011;9713;48.140;11.530;2023-07-31T20:54:50;5.70;;;3.55;;
19161;SDS011;9713;48.140;11.530;2023-07-31T20:58:33;7.63;;;3.05;;
19161;SDS011;9713;48.140;11.530;2023-07-31T21:02:16;3.90;;;2.70;;
19161;SDS011;9713;48.140;11.530;2023-07-31T21:05:59;5.95;;;2.92;;
19161;SDS011;9713;48.140;11.530;2023-07-31T21:09:43;7.03;;;3.40;;
19161;SDS011;9713;48.140;11.530;2023-07-31T21:13:26;4.57;;;3.22;;
19161;SDS011;9713;48.140;11.530;2023-07-31T21:17:11;5.90;;;3.00;;
19161;SDS011;9713;48.140;11.530;2023-07-31T21:20:54;3.92;;;2.80;;
19161;SDS011;9713;48.140;11.530;2023-07-31T21:24:37;5.43;;;3.13;;
19161;SDS011;9713;48.140;11.530;2023-07-31T21:28:22;4.25;;;3.10;;
19161;SDS011;9713;48.140;11.530;2023-07-31T21:32:05;6.63;;;2.97;;
19161;SDS011;9713;48.140;11.530;2023-07-31T21:35:48;5.32;;;2.80;;
19161;SDS011;9713;48.140;11.530;2023-07-31T21:39:31;4.32;;;3.03;;
19161;SDS011;9713;48.140;11.530;2023-07-31T21:43:14;4.35;;;2.80;;
19161;SDS011;9713;48.140;11.530;2023-07-31T21:46:58;4.80;;;2.72;;
19161;SDS011;9713;48.140;11.530;2023-07-31T21:50:41;6.47;;;3.22;;
19161;SDS011;9713;48.140;11.530;2023-07-31T21:54:24;5.22;;;2.80;;
19161;SDS011;9713;48.140;11.530;2023-07-31T21:58:07;4.95;;;2.72;;
19161;SDS011;9713;48.140;11.530;2023-07-31T22:01:49;4.53;;;2.80;;
19161;SDS011;9713;48.140;11.530;2023-07-31T22:05:33;4.22;;;2.60;;
19161;SDS011;9713;48.140;11.530;2023-07-31T22:09:16;4.85;;;2.90;;
19161;SDS011;9713;48.140;11.530;2023-07-31T22:12:59;3.15;;;2.63;;
19161;SDS011;9713;48.140;11.530;2023-07-31T22:16:42;3.85;;;2.42;;
19161;SDS011;9713;48.140;11.530;2023-07-31T22:20:25;8.57;;;2.83;;
19161;SDS011;9713;48.140;11.530;2023-07-31T22:24:09;4.90;;;2.63;;
19161;SDS011;9713;48.140;11.530;2023-07-31T22:27:51;4.13;;;3.20;;